Time;durP1;ratioP1;P1;durP2;ratioP2;P2;SDS_P1;SDS_P2;PMS_P1;PMS_P2;Temp;Humidity;BMP_temperature;BMP_pressure;BME280_temperature;BME280_humidity;BME280_pressure;Samples;Min_cycle;Max_cycle;Signal;HPM_P1;HPM_P2
2023/02/24 00:03:04;;;;;;;31.13;17.42;;;9.00;99.90;;;;;;5034852;28;20404;-66
2023/02/24 00:05:33;;;;;;;32.90;19.58;;;9.00;99.90;;;;;;5053299;28;20384;-66
2023/02/24 00:08:01;;;;;;;32.03;18.52;;;9.00;99.90;;;;;;5084864;28;20044;-66
2023/02/24 00:10:29;;;;;;;41.10;21.17;;;9.00;99.90;;;;;;5053470;28;20049;-67
2023/02/24 00:12:56;;;;;;;36.03;19.92;;;8.90;99.90;;;;;;5070651;28;20041;-65
2023/02/24 00:15:23;;;;;;;31.50;19.02;;;8.90;99.90;;;;;;5072448;28;20037;-66
2023/02/24 00:17:51;;;;;;;31.58;19.15;;;8.90;99.90;;;;;;5071760;28;20041;-65
2023/02/24 00:20:18;;;;;;;37.15;20.05;;;8.90;99.90;;;;;;5072536;28;20414;-65
2023/02/24 00:22:45;;;;;;;33.60;19.45;;;8.90;99.90;;;;;;5037909;28;20041;-66
2023/02/24 00:25:13;;;;;;;32.70;19.80;;;8.90;99.90;;;;;;5039588;28;20041;-65
2023/02/24 00:27:41;;;;;;;32.15;19.17;;;8.90;99.90;;;;;;5029726;28;20550;-66
2023/02/24 00:30:10;;;;;;;33.10;20.02;;;8.80;99.90;;;;;;5030422;28;20738;-66
2023/02/24 00:32:38;;;;;;;35.22;19.95;;;8.80;99.90;;;;;;5032322;28;20046;-66
2023/02/24 00:35:07;;;;;;;33.47;19.52;;;8.80;99.90;;;;;;5030769;28;20051;-66
2023/02/24 00:37:34;;;;;;;41.33;21.42;;;8.70;99.90;;;;;;5031192;28;20120;-66
2023/02/24 00:40:09;;;;;;;35.03;20.67;;;8.70;99.90;;;;;;5047292;28;20044;-66
2023/02/24 00:42:38;;;;;;;41.35;23.10;;;8.80;99.90;;;;;;5065450;28;20400;-66
2023/02/24 00:45:09;;;;;;;34.20;20.77;;;8.80;99.90;;;;;;5033832;28;20036;-65
2023/02/24 00:47:38;;;;;;;37.22;21.50;;;8.80;99.90;;;;;;5049373;28;20096;-65
2023/02/24 00:50:06;;;;;;;39.70;22.50;;;8.80;99.90;;;;;;5050524;28;20549;-66
2023/02/24 00:52:35;;;;;;;41.63;22.23;;;8.80;99.90;;;;;;5047333;28;20052;-66
2023/02/24 00:55:12;;;;;;;36.45;21.67;;;8.70;99.90;;;;;;5031259;28;20484;-66
2023/02/24 00:57:40;;;;;;;40.10;22.60;;;8.80;99.90;;;;;;5029732;28;20103;-66
2023/02/24 01:00:15;;;;;;;39.72;21.80;;;8.80;99.90;;;;;;5046517;28;20374;-66
2023/02/24 01:02:46;;;;;;;38.15;21.10;;;8.80;99.90;;;;;;5048965;28;20049;-67
2023/02/24 01:05:14;;;;;;;41.10;22.10;;;8.80;99.90;;;;;;5034708;28;20072;-66
2023/02/24 01:07:41;;;;;;;38.50;22.42;;;8.80;99.90;;;;;;5029664;28;20071;-66
2023/02/24 01:10:11;;;;;;;37.88;21.45;;;8.80;99.90;;;;;;5051497;28;20044;-66
2023/02/24 01:12:48;;;;;;;38.58;21.40;;;8.70;99.90;;;;;;5061515;28;20049;-66
2023/02/24 01:15:18;;;;;;;38.28;21.02;;;8.70;99.90;;;;;;5038759;28;20045;-66
2023/02/24 01:17:45;;;;;;;38.78;22.40;;;8.70;99.90;;;;;;5051695;28;20033;-66
2023/02/24 01:20:17;;;;;;;41.10;22.48;;;8.70;99.90;;;;;;5049703;28;20113;-66
2023/02/24 01:22:48;;;;;;;41.33;23.38;;;8.60;99.90;;;;;;5038581;28;20042;-66
2023/02/24 01:25:17;;;;;;;42.63;23.30;;;8.60;99.90;;;;;;5029092;28;20052;-66
2023/02/24 01:27:45;;;;;;;51.00;25.33;;;8.60;99.90;;;;;;5028153;28;20071;-66
2023/02/24 01:30:14;;;;;;;41.85;22.95;;;8.60;99.90;;;;;;5030244;28;20071;-66
2023/02/24 01:32:43;;;;;;;42.13;23.17;;;8.60;99.90;;;;;;5029113;28;20069;-66
2023/02/24 01:35:11;;;;;;;41.15;22.63;;;8.60;99.90;;;;;;5029771;28;20443;-66
2023/02/24 01:37:38;;;;;;;42.40;24.52;;;8.60;99.90;;;;;;5039241;28;20041;-66
2023/02/24 01:40:17;;;;;;;40.88;22.45;;;8.60;99.90;;;;;;5049665;28;20077;-66
2023/02/24 01:42:46;;;;;;;40.83;23.38;;;8.60;99.90;;;;;;5030694;28;20479;-66
2023/02/24 01:45:17;;;;;;;49.53;25.15;;;8.60;99.90;;;;;;5044259;28;20512;-66
2023/02/24 01:47:46;;;;;;;39.67;23.45;;;8.60;99.90;;;;;;5028143;28;20041;-66
2023/02/24 01:50:16;;;;;;;46.95;23.85;;;8.60;99.90;;;;;;5029179;28;20038;-66
2023/02/24 01:52:46;;;;;;;42.70;23.55;;;8.60;99.90;;;;;;5027795;28;20068;-66
2023/02/24 01:55:19;;;;;;;46.33;23.98;;;8.50;99.90;;;;;;5028475;28;20045;-66
2023/02/24 01:57:47;;;;;;;45.83;24.65;;;8.60;99.90;;;;;;5034317;28;20539;-66
2023/02/24 02:00:58;;;;;;;49.17;24.67;;;8.50;99.90;;;;;;5049119;28;20133;-66
2023/02/24 02:03:12;;;;;;;45.37;24.73;;;8.50;99.90;;;;;;5044897;28;20102;-66
2023/02/24 02:05:41;;;;;;;40.85;23.13;;;8.50;99.90;;;;;;5048591;28;20049;-65
2023/02/24 02:08:09;;;;;;;49.03;25.17;;;8.50;99.90;;;;;;5038184;28;20167;-66
2023/02/24 02:10:39;;;;;;;45.83;25.40;;;8.50;99.90;;;;;;5042781;28;20050;-66
2023/02/24 02:13:07;;;;;;;46.58;26.15;;;8.50;99.90;;;;;;5033147;28;20038;-66
2023/02/24 02:15:45;;;;;;;46.42;25.80;;;8.50;99.90;;;;;;5033090;28;20041;-66
2023/02/24 02:18:41;;;;;;;45.35;26.17;;;8.50;99.90;;;;;;5044787;28;20037;-66
2023/02/24 02:21:35;;;;;;;43.42;26.02;;;8.50;99.90;;;;;;5040294;28;20054;-66
2023/02/24 02:24:35;;;;;;;42.95;24.08;;;8.50;99.90;;;;;;5033397;28;20037;-66
2023/02/24 02:27:21;;;;;;;47.70;25.75;;;8.50;99.90;;;;;;5032122;28;20412;-66
2023/02/24 02:29:55;;;;;;;48.35;26.00;;;8.40;99.90;;;;;;5032965;28;20059;-66
2023/02/24 02:32:50;;;;;;;47.50;25.85;;;8.40;99.90;;;;;;5031516;28;20053;-66
2023/02/24 02:35:26;;;;;;;50.63;27.67;;;8.40;99.90;;;;;;5034022;28;20435;-66
2023/02/24 02:38:04;;;;;;;47.45;27.40;;;8.30;99.90;;;;;;5033986;28;20472;-66
2023/02/24 02:41:18;;;;;;;45.42;25.40;;;8.40;99.90;;;;;;5033273;28;20033;-65
2023/02/24 02:44:11;;;;;;;46.53;26.10;;;8.30;99.90;;;;;;5025706;28;20048;-66
2023/02/24 02:46:48;;;;;;;50.13;26.30;;;8.40;99.90;;;;;;5050454;28;20045;-65
2023/02/24 02:49:29;;;;;;;47.63;26.27;;;8.40;99.90;;;;;;5048104;28;20045;-65
2023/02/24 02:52:12;;;;;;;53.77;27.37;;;8.30;99.90;;;;;;5051533;28;20040;-67
2023/02/24 02:54:48;;;;;;;50.53;27.08;;;8.30;99.90;;;;;;5034217;28;20048;-67
2023/02/24 02:57:28;;;;;;;51.38;26.58;;;8.30;99.90;;;;;;5034579;28;20044;-67
2023/02/24 03:00:12;;;;;;;47.70;25.48;;;8.20;99.90;;;;;;5032670;28;20427;-67
2023/02/24 03:02:45;;;;;;;52.55;27.80;;;8.20;99.90;;;;;;5032392;28;20030;-67
2023/02/24 03:05:20;;;;;;;48.30;27.38;;;8.20;99.90;;;;;;5031218;28;20077;-67
2023/02/24 03:07:55;;;;;;;49.30;28.17;;;8.20;99.90;;;;;;5032483;28;20500;-67
2023/02/24 03:10:28;;;;;;;52.53;28.73;;;8.20;99.90;;;;;;5042609;28;20393;-66
2023/02/24 03:12:58;;;;;;;50.40;28.00;;;8.10;99.90;;;;;;5039201;28;20506;-67
2023/02/24 03:15:30;;;;;;;48.33;27.48;;;8.20;99.90;;;;;;5031723;28;20098;-67
2023/02/24 03:18:08;;;;;;;46.55;25.73;;;8.10;99.90;;;;;;5032070;28;20069;-66
2023/02/24 03:20:51;;;;;;;51.42;27.30;;;8.20;99.90;;;;;;5046965;28;20040;-67
2023/02/24 03:23:24;;;;;;;50.17;26.63;;;8.10;99.90;;;;;;5034648;28;20059;-67
2023/02/24 03:26:06;;;;;;;52.80;27.85;;;8.10;99.90;;;;;;5048188;28;20512;-66
2023/02/24 03:28:40;;;;;;;49.10;27.33;;;8.10;99.90;;;;;;5057872;28;20459;-67
2023/02/24 03:31:34;;;;;;;50.63;27.90;;;8.10;99.90;;;;;;5051162;28;20099;-67
2023/02/24 03:34:40;;;;;;;53.42;28.08;;;8.10;99.90;;;;;;5036208;28;20053;-67
2023/02/24 03:37:08;;;;;;;47.45;27.83;;;8.00;99.90;;;;;;5031623;28;20038;-67
2023/02/24 03:39:35;;;;;;;50.92;27.38;;;8.00;99.90;;;;;;5032352;28;20046;-67
2023/02/24 03:42:18;;;;;;;53.72;27.85;;;8.00;99.90;;;;;;5032448;28;20408;-67
2023/02/24 03:44:46;;;;;;;50.58;25.45;;;8.10;99.90;;;;;;5049583;28;20048;-66
2023/02/24 03:47:16;;;;;;;47.95;25.98;;;8.10;99.90;;;;;;5050557;28;20040;-67
2023/02/24 03:49:44;;;;;;;47.42;26.08;;;8.20;99.90;;;;;;5035078;28;20057;-66
2023/02/24 03:52:46;;;;;;;51.67;26.65;;;8.20;99.90;;;;;;5041951;28;20115;-66
2023/02/24 03:55:36;;;;;;;46.17;25.95;;;8.10;99.90;;;;;;5029501;28;20042;-66
2023/02/24 03:58:20;;;;;;;47.60;26.30;;;8.10;99.90;;;;;;5029410;28;20052;-66
2023/02/24 04:00:47;;;;;;;50.95;26.65;;;8.10;99.90;;;;;;5026601;28;20049;-66
2023/02/24 04:03:42;;;;;;;53.55;27.67;;;8.10;99.90;;;;;;5035212;28;20041;-66
2023/02/24 04:06:40;;;;;;;49.20;26.73;;;8.10;99.90;;;;;;5029649;28;20094;-66
2023/02/24 04:09:38;;;;;;;45.53;24.73;;;8.00;99.90;;;;;;5048618;28;20113;-66
2023/02/24 04:12:26;;;;;;;50.58;28.05;;;8.00;99.90;;;;;;5049149;28;20420;-67
2023/02/24 04:15:03;;;;;;;47.35;26.95;;;8.00;99.90;;;;;;5036002;28;20040;-66
2023/02/24 04:17:53;;;;;;;49.58;26.80;;;8.00;99.90;;;;;;5049896;28;20044;-66
2023/02/24 04:20:28;;;;;;;52.70;26.65;;;8.00;99.90;;;;;;5031552;28;20065;-66
2023/02/24 04:23:07;;;;;;;49.00;26.42;;;8.00;99.90;;;;;;5043585;28;20399;-66
2023/02/24 04:25:37;;;;;;;54.47;28.38;;;8.00;99.90;;;;;;5012357;28;20046;-67
2023/02/24 04:28:09;;;;;;;50.58;26.70;;;7.90;99.90;;;;;;5063765;28;20499;-65
2023/02/24 04:30:43;;;;;;;57.40;28.40;;;7.90;99.90;;;;;;5065532;28;20094;-65
2023/02/24 04:33:12;;;;;;;55.03;27.35;;;7.90;99.90;;;;;;5047534;28;20574;-66
2023/02/24 04:35:39;;;;;;;47.72;27.35;;;7.90;99.90;;;;;;5046515;28;20045;-66
2023/02/24 04:38:07;;;;;;;53.42;26.80;;;7.80;99.90;;;;;;5029360;28;20037;-66
2023/02/24 04:40:36;;;;;;;50.67;27.38;;;7.80;99.90;;;;;;5041097;28;20036;-66
2023/02/24 04:43:03;;;;;;;53.97;27.42;;;7.80;99.90;;;;;;5034755;28;20415;-66
2023/02/24 04:45:31;;;;;;;51.20;27.50;;;7.80;99.90;;;;;;5042411;28;20123;-67
2023/02/24 04:48:00;;;;;;;57.38;28.48;;;7.70;99.90;;;;;;5049230;28;20421;-66
2023/02/24 04:50:31;;;;;;;53.33;27.80;;;7.80;99.90;;;;;;5037258;28;20562;-66
2023/02/24 04:53:06;;;;;;;54.30;27.02;;;7.70;99.90;;;;;;5031073;28;20065;-66
2023/02/24 04:55:38;;;;;;;52.65;26.58;;;7.80;99.90;;;;;;5031971;28;20045;-66
2023/02/24 04:58:10;;;;;;;52.60;28.35;;;7.70;99.90;;;;;;5035372;28;20433;-66
2023/02/24 05:00:40;;;;;;;54.67;28.83;;;7.70;99.90;;;;;;5046427;28;20063;-66
2023/02/24 05:03:10;;;;;;;52.85;28.42;;;7.70;99.90;;;;;;5030363;28;20450;-67
2023/02/24 05:05:38;;;;;;;54.45;27.00;;;7.70;99.90;;;;;;5029842;28;20321;-66
2023/02/24 05:08:08;;;;;;;52.22;26.63;;;7.70;99.90;;;;;;5029663;28;20652;-66
2023/02/24 05:10:41;;;;;;;57.88;28.38;;;7.70;99.90;;;;;;5046331;28;20049;-67
2023/02/24 05:13:11;;;;;;;53.72;27.55;;;7.70;99.90;;;;;;5048857;28;20052;-67
2023/02/24 05:15:41;;;;;;;53.70;27.35;;;7.70;99.90;;;;;;5031131;28;20045;-66
2023/02/24 05:18:13;;;;;;;52.28;26.58;;;7.70;99.90;;;;;;5044613;28;20506;-66
2023/02/24 05:23:34;;;;;;;54.70;26.88;;;7.70;99.90;;;;;;5045974;28;20368;-67
2023/02/24 05:26:07;;;;;;;57.55;28.77;;;7.70;99.90;;;;;;5065061;28;20041;-68
2023/02/24 05:28:39;;;;;;;53.45;27.73;;;7.60;99.90;;;;;;5032185;28;20057;-67
2023/02/24 05:31:13;;;;;;;58.10;29.05;;;7.70;99.90;;;;;;5029678;28;20054;-67
2023/02/24 05:33:43;;;;;;;61.25;28.00;;;7.60;99.90;;;;;;5043732;28;20048;-67
2023/02/24 05:36:16;;;;;;;55.30;27.58;;;7.60;99.90;;;;;;5045087;28;20132;-67
2023/02/24 05:38:46;;;;;;;55.17;27.98;;;7.60;99.90;;;;;;5030469;28;20124;-67
2023/02/24 05:41:17;;;;;;;58.25;29.13;;;7.60;99.90;;;;;;5043555;28;20056;-67
2023/02/24 05:43:53;;;;;;;55.72;28.08;;;7.60;99.90;;;;;;5041547;28;20034;-67
2023/02/24 05:46:31;;;;;;;50.42;26.55;;;7.60;99.90;;;;;;5034765;28;20049;-68
2023/02/24 05:49:01;;;;;;;54.65;27.05;;;7.60;99.90;;;;;;5041788;28;20045;-67
2023/02/24 05:51:37;;;;;;;57.00;28.25;;;7.60;99.90;;;;;;5044319;28;20403;-67
2023/02/24 05:54:08;;;;;;;56.25;29.00;;;7.60;99.90;;;;;;5027281;28;20630;-66
2023/02/24 05:56:38;;;;;;;57.13;29.33;;;7.60;99.90;;;;;;5042894;28;20038;-67
2023/02/24 05:59:07;;;;;;;56.00;27.42;;;7.60;99.90;;;;;;5038966;28;20442;-66
2023/02/24 06:01:40;;;;;;;57.40;29.60;;;7.60;99.90;;;;;;5032698;28;20037;-67
2023/02/24 06:04:08;;;;;;;62.25;29.48;;;7.60;99.90;;;;;;5049359;28;20391;-66
2023/02/24 06:06:39;;;;;;;55.78;29.42;;;7.50;99.90;;;;;;5048790;28;20483;-66
2023/02/24 06:09:09;;;;;;;65.05;30.58;;;7.50;99.90;;;;;;5044833;28;20041;-66
2023/02/24 06:11:41;;;;;;;57.22;29.17;;;7.50;99.90;;;;;;5048751;28;20069;-67
2023/02/24 06:14:10;;;;;;;55.60;28.00;;;7.50;99.90;;;;;;5067654;28;20491;-67
2023/02/24 06:16:40;;;;;;;57.50;28.60;;;7.50;99.90;;;;;;5049906;28;20037;-67
2023/02/24 06:19:09;;;;;;;57.90;30.63;;;7.50;99.90;;;;;;5068168;28;20041;-67
2023/02/24 06:21:40;;;;;;;58.90;30.98;;;7.50;99.90;;;;;;5070294;28;20047;-66
2023/02/24 06:24:17;;;;;;;69.63;30.27;;;7.40;99.90;;;;;;5070019;28;20041;-66
2023/02/24 06:26:45;;;;;;;58.17;28.58;;;7.40;99.90;;;;;;5065256;28;20446;-67
2023/02/24 06:29:16;;;;;;;60.25;30.20;;;7.40;99.90;;;;;;5061185;28;20468;-70
2023/02/24 06:31:44;;;;;;;67.10;31.27;;;7.40;99.90;;;;;;5057695;28;20567;-71
2023/02/24 06:34:17;;;;;;;60.05;28.58;;;7.40;99.90;;;;;;5045581;28;20051;-69
2023/02/24 06:36:45;;;;;;;59.58;29.83;;;7.50;99.90;;;;;;5049704;28;20499;-70
2023/02/24 06:39:13;;;;;;;61.63;29.23;;;7.50;99.90;;;;;;5068630;28;20051;-71
2023/02/24 06:41:41;;;;;;;59.67;29.75;;;7.60;99.90;;;;;;5069472;28;20037;-71
2023/02/24 06:44:08;;;;;;;59.80;29.73;;;7.60;99.90;;;;;;5055602;28;20048;-72
2023/02/24 06:46:36;;;;;;;66.78;31.25;;;7.70;99.90;;;;;;5068688;28;20052;-70
2023/02/24 06:49:03;;;;;;;67.00;31.13;;;7.70;99.90;;;;;;5067919;28;20129;-69
2023/02/24 06:51:31;;;;;;;59.92;28.95;;;7.70;99.90;;;;;;5033747;28;20546;-71
2023/02/24 06:53:58;;;;;;;57.58;29.98;;;7.70;99.90;;;;;;5067899;28;20475;-70
2023/02/24 06:56:27;;;;;;;60.72;30.05;;;7.70;99.90;;;;;;5071033;28;20499;-70
2023/02/24 06:58:56;;;;;;;56.75;28.70;;;7.70;99.90;;;;;;5071340;28;20530;-70
2023/02/24 07:01:25;;;;;;;57.55;28.05;;;7.70;99.90;;;;;;5072437;28;20102;-70
2023/02/24 07:04:16;;;;;;;60.85;28.23;;;7.70;99.90;;;;;;5072910;28;20412;-71
2023/02/24 07:06:51;;;;;;;57.50;28.10;;;7.70;99.90;;;;;;5068705;28;20152;-70
2023/02/24 07:09:23;;;;;;;58.70;29.42;;;7.70;99.90;;;;;;5045640;28;20487;-71
2023/02/24 07:11:51;;;;;;;;;;;7.70;99.90;;;;;;5066764;28;20071;-70
2023/02/24 07:14:20;;;;;;;66.15;28.38;;;7.80;99.90;;;;;;5060639;28;20298;-71
2023/02/24 07:16:52;;;;;;;51.60;27.92;;;8.00;99.90;;;;;;5071865;28;20475;-71
2023/02/24 07:19:24;;;;;;;57.45;28.90;;;7.90;99.90;;;;;;5073473;28;20131;-70
2023/02/24 07:21:58;;;;;;;58.83;30.47;;;7.90;99.90;;;;;;5088559;28;20040;-70
2023/02/24 07:24:37;;;;;;;59.72;29.73;;;7.90;99.90;;;;;;5071602;28;20759;-70
2023/02/24 07:27:21;;;;;;;56.40;29.33;;;7.90;99.90;;;;;;5072599;28;20056;-71
2023/02/24 07:29:50;;;;;;;59.88;28.17;;;7.90;99.90;;;;;;5072735;28;20056;-71
2023/02/24 07:32:24;;;;;;;59.83;29.58;;;7.90;99.90;;;;;;5072819;28;20407;-71
2023/02/24 07:34:51;;;;;;;60.10;30.70;;;7.80;99.90;;;;;;5071414;28;20051;-70
2023/02/24 07:37:19;;;;;;;55.78;28.25;;;7.90;99.90;;;;;;5031341;28;20495;-70
2023/02/24 07:39:47;;;;;;;61.88;30.60;;;7.90;99.90;;;;;;5050429;28;20065;-70
2023/02/24 07:42:14;;;;;;;58.72;29.02;;;8.00;99.90;;;;;;5031285;28;20060;-70
2023/02/24 07:44:47;;;;;;;63.83;28.90;;;8.00;99.90;;;;;;5049207;28;20049;-70
2023/02/24 07:47:15;;;;;;;59.63;29.20;;;8.00;99.90;;;;;;5046920;28;20041;-70
2023/02/24 07:49:44;;;;;;;61.17;28.35;;;7.90;99.90;;;;;;5029884;28;20448;-70
2023/02/24 07:52:11;;;;;;;59.42;29.17;;;8.00;99.90;;;;;;5030674;28;20054;-70
2023/02/24 07:54:39;;;;;;;58.92;31.00;;;7.90;99.90;;;;;;5033455;28;20037;-70
2023/02/24 07:57:12;;;;;;;54.22;28.60;;;7.90;99.90;;;;;;5039250;28;20041;-70
2023/02/24 07:59:43;;;;;;;60.70;29.85;;;7.90;99.90;;;;;;5030365;28;20045;-70
2023/02/24 08:02:12;;;;;;;62.65;29.33;;;7.90;99.90;;;;;;5029215;28;20056;-71
2023/02/24 08:04:43;;;;;;;62.75;30.42;;;8.00;99.90;;;;;;5030244;28;20042;-71
2023/02/24 08:07:13;;;;;;;58.50;28.83;;;8.00;99.90;;;;;;5034462;28;20382;-70
2023/02/24 08:12:21;;;;;;;62.92;30.33;;;8.00;99.90;;;;;;5030993;28;20045;-70
2023/02/24 08:14:51;;;;;;;57.80;29.23;;;8.00;99.90;;;;;;5037400;28;20441;-70
2023/02/24 08:17:20;;;;;;;58.50;30.10;;;8.10;99.90;;;;;;5022115;28;20465;-69
2023/02/24 08:19:49;;;;;;;57.95;28.50;;;8.20;99.90;;;;;;5030485;28;20437;-69
2023/02/24 08:22:22;;;;;;;58.92;29.35;;;8.30;99.90;;;;;;5045924;28;20583;-66
2023/02/24 08:25:04;;;;;;;60.00;28.40;;;8.30;99.90;;;;;;5030684;28;20444;-67
2023/02/24 08:27:37;;;;;;;55.55;28.65;;;8.40;99.90;;;;;;5012598;28;20380;-66
2023/02/24 08:30:07;;;;;;;59.25;28.20;;;8.30;99.90;;;;;;5029876;28;20475;-65
2023/02/24 08:32:36;;;;;;;52.00;27.27;;;8.30;99.90;;;;;;5030749;28;20137;-67
2023/02/24 08:35:16;;;;;;;54.53;27.85;;;8.30;99.90;;;;;;5030137;28;20120;-67
2023/02/24 08:37:46;;;;;;;54.25;27.60;;;8.30;99.90;;;;;;5045917;28;20052;-65
2023/02/24 08:43:14;;;;;;;56.88;28.33;;;8.40;99.90;;;;;;5032714;28;20044;-67
2023/02/24 08:45:50;;;;;;;50.25;25.92;;;8.50;99.90;;;;;;5043629;28;20042;-67
2023/02/24 08:48:35;;;;;;;59.85;26.95;;;8.50;99.90;;;;;;5029737;28;20045;-70
2023/02/24 08:51:11;;;;;;;54.95;27.20;;;8.60;99.90;;;;;;5029714;28;20041;-66
2023/02/24 08:53:39;;;;;;;56.50;28.60;;;8.60;99.90;;;;;;5031162;28;20080;-67
2023/02/24 08:56:12;;;;;;;50.75;27.02;;;8.70;99.90;;;;;;5029301;28;20358;-66
2023/02/24 08:58:47;;;;;;;51.63;27.58;;;8.80;99.90;;;;;;5031309;28;20499;-66
2023/02/24 09:01:22;;;;;;;59.13;28.13;;;8.80;99.90;;;;;;5049056;28;20566;-66
2023/02/24 09:03:54;;;;;;;50.25;26.35;;;8.70;99.90;;;;;;5023810;28;20038;-66
2023/02/24 09:06:34;;;;;;;43.65;24.15;;;8.70;99.90;;;;;;5031485;28;20044;-65
2023/02/24 09:09:16;;;;;;;51.42;25.60;;;8.80;99.90;;;;;;5032933;28;20048;-66
2023/02/24 09:11:48;;;;;;;49.78;25.77;;;8.80;99.90;;;;;;5056396;28;20045;-68
2023/02/24 09:14:19;;;;;;;50.45;24.80;;;8.60;99.90;;;;;;5040499;28;20110;-68
2023/02/24 09:17:01;;;;;;;46.33;24.30;;;8.70;99.90;;;;;;5047955;28;20407;-67
2023/02/24 09:19:39;;;;;;;49.40;25.73;;;8.70;99.90;;;;;;5048539;28;20109;-66
2023/02/24 09:22:28;;;;;;;49.20;25.25;;;8.80;99.90;;;;;;5031152;28;20526;-66
2023/02/24 09:25:39;;;;;;;43.90;24.27;;;8.90;99.90;;;;;;5048567;28;20132;-68
2023/02/24 09:28:23;;;;;;;46.45;23.10;;;9.00;99.90;;;;;;5045715;28;20045;-66
2023/02/24 09:30:53;;;;;;;46.88;24.58;;;9.10;99.90;;;;;;5029326;28;20084;-67
2023/02/24 09:33:37;;;;;;;44.22;23.23;;;8.90;99.90;;;;;;5044695;28;20473;-65
2023/02/24 09:36:11;;;;;;;46.47;24.38;;;8.90;99.90;;;;;;5030274;28;20068;-68
2023/02/24 09:41:55;;;;;;;48.03;25.23;;;8.90;99.90;;;;;;5045619;28;20037;-66
2023/02/24 09:44:22;;;;;;;49.60;24.98;;;8.90;99.90;;;;;;5041592;28;20124;-67
2023/02/24 09:47:07;;;;;;;44.00;22.92;;;9.10;99.90;;;;;;5030098;28;20523;-65
2023/02/24 09:49:47;;;;;;;45.65;24.17;;;9.20;99.90;;;;;;5048204;28;20087;-65
2023/02/24 09:52:17;;;;;;;46.60;24.05;;;9.40;99.90;;;;;;5035891;28;20052;-66
2023/02/24 10:00:42;;;;;;;45.50;25.00;;;10.00;99.90;;;;;;5032688;28;20045;-66
2023/02/24 10:03:41;;;;;;;44.67;23.38;;;10.10;99.90;;;;;;5030695;28;20556;-67
2023/02/24 10:06:19;;;;;;;42.55;22.85;;;10.20;99.90;;;;;;5047816;28;20029;-70
2023/02/24 10:08:54;;;;;;;44.55;22.30;;;10.10;99.90;;;;;;5030129;28;20403;-66
2023/02/24 10:11:32;;;;;;;40.58;21.77;;;9.90;99.90;;;;;;5063903;28;20574;-66
2023/02/24 10:14:04;;;;;;;43.05;21.63;;;10.20;99.90;;;;;;5048147;28;20136;-66
2023/02/24 10:16:41;;;;;;;38.00;21.35;;;10.40;99.90;;;;;;5049536;28;20137;-66
2023/02/24 10:19:23;;;;;;;42.22;22.08;;;10.60;99.90;;;;;;5044116;28;20060;-65
2023/02/24 10:22:29;;;;;;;;;;;10.80;99.90;;;;;;5030047;28;20555;-66
2023/02/24 10:25:09;;;;;;;40.58;21.95;;;10.80;99.90;;;;;;5021823;28;19921;-66
2023/02/24 10:28:00;;;;;;;37.53;21.27;;;11.20;99.90;;;;;;5011891;28;20091;-66
2023/02/24 10:30:39;;;;;;;37.47;20.67;;;11.10;99.90;;;;;;5026688;28;20053;-66
2023/02/24 10:33:36;;;;;;;35.58;20.30;;;11.30;99.90;;;;;;5031525;28;20045;-66
2023/02/24 10:36:24;;;;;;;36.30;21.42;;;11.80;99.90;;;;;;5032489;28;20400;-67
2023/02/24 10:38:54;;;;;;;39.85;21.10;;;11.90;99.90;;;;;;5031495;28;20048;-66
2023/02/24 10:41:28;;;;;;;39.53;20.95;;;12.00;99.90;;;;;;5048289;28;20053;-66
2023/02/24 10:43:57;;;;;;;32.60;20.25;;;11.80;99.90;;;;;;5044137;28;20045;-67
2023/02/24 10:46:32;;;;;;;37.00;20.67;;;11.50;99.90;;;;;;5052691;28;20153;-67
2023/02/24 10:49:15;;;;;;;34.53;19.25;;;11.20;99.90;;;;;;5043137;28;20120;-67
2023/02/24 10:51:51;;;;;;;36.88;20.73;;;11.00;99.90;;;;;;5059804;28;20052;-66
2023/02/24 10:54:33;;;;;;;31.85;19.08;;;10.90;99.90;;;;;;5044016;28;20045;-67
2023/02/24 10:57:17;;;;;;;37.63;19.40;;;10.60;99.90;;;;;;5049374;28;20091;-67
2023/02/24 11:03:05;;;;;;;32.55;19.52;;;10.40;99.90;;;;;;5052409;28;20175;-67
2023/02/24 11:08:53;;;;;;;31.70;17.50;;;10.10;99.90;;;;;;5060820;28;20499;-66
2023/02/24 11:11:29;;;;;;;36.33;19.33;;;10.10;99.90;;;;;;5043218;28;20555;-66
2023/02/24 11:19:42;;;;;;;34.20;18.83;;;10.80;99.90;;;;;;5033002;28;20448;-67
2023/02/24 11:22:16;;;;;;;34.60;18.60;;;10.70;99.90;;;;;;5050449;28;20144;-65
2023/02/24 11:24:45;;;;;;;30.08;17.17;;;10.70;99.90;;;;;;5052423;28;20041;-66
2023/02/24 11:27:15;;;;;;;32.63;16.48;;;11.00;99.90;;;;;;5049368;28;20101;-66
2023/02/24 11:30:06;;;;;;;32.63;17.27;;;11.20;99.90;;;;;;5051132;28;20040;-67
2023/02/24 11:32:42;;;;;;;32.80;16.90;;;11.30;99.90;;;;;;5034412;28;20055;-68
2023/02/24 11:35:37;;;;;;;29.50;16.90;;;11.20;99.90;;;;;;5030514;28;20476;-66
2023/02/24 11:38:33;;;;;;;29.75;16.60;;;10.80;99.90;;;;;;5048923;28;20045;-66
2023/02/24 11:41:04;;;;;;;29.30;16.58;;;10.50;99.90;;;;;;5048441;28;20470;-66
2023/02/24 11:43:35;;;;;;;32.30;16.73;;;10.40;99.90;;;;;;5050186;28;20578;-65
2023/02/24 11:46:13;;;;;;;28.35;15.70;;;10.20;99.90;;;;;;5034214;28;20460;-66
2023/02/24 11:48:48;;;;;;;30.98;16.02;;;10.10;99.90;;;;;;5051877;28;20071;-67
2023/02/24 11:51:19;;;;;;;34.28;16.48;;;10.20;99.90;;;;;;5067088;28;20102;-66
2023/02/24 11:53:56;;;;;;;27.95;16.23;;;10.10;99.90;;;;;;5049882;28;20061;-66
2023/02/24 11:56:29;;;;;;;31.70;17.23;;;10.20;99.90;;;;;;5048211;28;20069;-66
2023/02/24 11:59:02;;;;;;;27.27;15.50;;;10.30;99.90;;;;;;5029620;28;20099;-65
2023/02/24 12:01:39;;;;;;;28.85;15.48;;;10.30;99.90;;;;;;5030521;28;20041;-68
2023/02/24 12:04:28;;;;;;;26.27;15.25;;;10.40;99.90;;;;;;5032356;28;20049;-67
2023/02/24 12:06:58;;;;;;;27.70;15.25;;;10.40;99.90;;;;;;5048068;28;20080;-65
2023/02/24 12:09:35;;;;;;;26.60;14.43;;;10.60;99.90;;;;;;5016807;28;20110;-65
2023/02/24 12:12:26;;;;;;;30.67;13.60;;;10.70;99.90;;;;;;5049403;28;20123;-68
2023/02/24 12:15:02;;;;;;;24.37;14.53;;;10.80;99.90;;;;;;5052453;28;20049;-67
2023/02/24 12:17:37;;;;;;;25.45;14.70;;;10.60;99.90;;;;;;5051582;28;20095;-68
2023/02/24 12:20:18;;;;;;;26.05;13.13;;;10.50;99.90;;;;;;5049389;28;20556;-66
2023/02/24 12:22:59;;;;;;;23.55;12.32;;;10.60;99.90;;;;;;5046305;28;20052;-65
2023/02/24 12:25:38;;;;;;;22.67;11.82;;;10.80;99.90;;;;;;5030397;28;20140;-71
2023/02/24 12:28:22;;;;;;;22.52;11.98;;;10.50;99.90;;;;;;5039962;28;20095;-71
2023/02/24 12:31:36;;;;;;;24.42;12.52;;;10.40;99.90;;;;;;5050734;28;20724;-70
2023/02/24 12:34:30;;;;;;;23.17;12.10;;;10.30;99.90;;;;;;5037318;28;20091;-70
2023/02/24 12:37:09;;;;;;;27.05;14.75;;;10.50;99.90;;;;;;5028861;28;20168;-69
2023/02/24 12:39:52;;;;;;;23.42;12.68;;;10.50;99.90;;;;;;5029988;28;20045;-69
2023/02/24 12:42:50;;;;;;;21.08;11.80;;;10.70;99.90;;;;;;5028880;28;20453;-68
2023/02/24 12:45:44;;;;;;;21.98;12.05;;;10.80;99.90;;;;;;5026838;28;20534;-69
2023/02/24 12:48:37;;;;;;;20.00;10.70;;;11.10;99.90;;;;;;5030622;28;20144;-69
2023/02/24 12:51:15;;;;;;;20.20;11.05;;;11.20;99.90;;;;;;5031775;28;20041;-70
2023/02/24 12:53:42;;;;;;;22.35;12.25;;;11.00;99.90;;;;;;5047170;28;20041;-69
2023/02/24 12:56:10;;;;;;;22.85;11.50;;;11.00;99.90;;;;;;5031990;28;20144;-70
2023/02/24 12:58:40;;;;;;;22.38;11.80;;;11.00;99.90;;;;;;5030315;28;20048;-69
2023/02/24 13:01:31;;;;;;;22.45;12.15;;;10.90;99.90;;;;;;5028355;28;20057;-65
2023/02/24 13:04:11;;;;;;;26.75;13.25;;;10.90;99.90;;;;;;5025269;28;20458;-66
2023/02/24 13:07:20;;;;;;;23.75;13.40;;;10.80;99.90;;;;;;5030738;28;20049;-70
2023/02/24 13:10:10;;;;;;;26.85;12.95;;;10.70;99.90;;;;;;5029922;28;20392;-69
2023/02/24 13:13:06;;;;;;;25.73;13.10;;;10.70;99.90;;;;;;5049586;28;20045;-69
2023/02/24 13:15:34;;;;;;;22.88;12.20;;;10.90;99.90;;;;;;5038215;28;20480;-69
2023/02/24 13:18:01;;;;;;;25.58;13.00;;;11.00;99.90;;;;;;5028860;28;20041;-69
2023/02/24 13:20:33;;;;;;;23.38;13.82;;;10.80;99.90;;;;;;5029262;28;20407;-70
2023/02/24 13:23:02;;;;;;;24.13;12.93;;;10.80;99.90;;;;;;5031040;28;20053;-69
2023/02/24 13:25:35;;;;;;;27.77;14.30;;;10.80;99.90;;;;;;5044953;28;20370;-69
2023/02/24 13:28:21;;;;;;;30.40;15.07;;;10.90;99.90;;;;;;5039199;28;20474;-71
2023/02/24 13:31:01;;;;;;;22.65;13.30;;;11.00;99.90;;;;;;5048724;28;20048;-69
2023/02/24 13:33:32;;;;;;;26.38;13.98;;;11.20;99.90;;;;;;5048684;28;20182;-69
2023/02/24 13:36:20;;;;;;;28.35;12.90;;;11.10;99.90;;;;;;5030561;28;20452;-70
2023/02/24 13:39:20;;;;;;;21.70;11.27;;;11.00;99.90;;;;;;5028921;28;20050;-69
2023/02/24 13:41:47;;;;;;;23.13;11.50;;;10.80;99.90;;;;;;5029034;28;20122;-70
2023/02/24 13:44:18;;;;;;;24.23;12.07;;;10.70;99.90;;;;;;5057483;28;20593;-68
2023/02/24 13:47:19;;;;;;;24.38;11.30;;;10.40;99.90;;;;;;5050037;28;20140;-69
2023/02/24 13:50:30;;;;;;;22.17;11.38;;;10.60;99.90;;;;;;5045167;28;20037;-69